Accueil
METAR-TAF:

METAR-TAF

Aéroports :

Base aérienne 125 Istres-Le Tubé

Istres, France

latitude: 43-31N, longitude: 004-56E, altitude: 23 m

Observation

Le bulletin a été fait il y a 29 minutes, à 05:30 UTC
Vent 6 kt de nord/nord-ouest
Température 11°C
Humidité 76%
Pression 1010 hPa
Visibilité 10 km ou plus
pas de nuages en-dessous de 1500 mètres et pas de cumulonimbus.

METAR: LFMI 280530Z AUTO 34006KT CAVOK 11/07 Q1010 NOSIG

Heure: 07:59 (05:59 UTC)

Prévision

Le bulletin a été fait il y a 3 heures et 59 minutes, à 02:00 UTC
Prévision valable du 28 à 03 UTC au 29 à 03 UTC
Vent 10 kt de nord-ouest
Visibilité 10 km ou plus
pas de nuages en-dessous de 1500 mètres et pas de cumulonimbus.
Evoluant progressivement
du 28 à 10 UTC au 28 à 12 UTC
Vent 20 kt de nord/nord-ouest avec des rafales jusqu'à 30 kt

TAF: LFMI 280200Z 2803/2903 32010KT CAVOK BECMG 2810/2812 33020G30KT

Observations et prévisions météorologiques de plus de 4000 aéroports (messages METAR et TAF).

Les stations disponibles sont représentées par des disques jaunes et rouges sur la carte.

Passer la souris dessus pour voir le nom de la station.

Cliquer dessus pour voir les observations et prévisions météorologiques.

Pour changer de carte: cliquez sur les boutons verts avec une croix noire pour zoomer, sur le bouton vert avec un tiret pour effectuer un zoom arrière, ou sur les flèches vertes pour les cartes adjacentes.


METAR-TAF: